sensor_id;sensor_type;location;lat;lon;timestamp;pressure;altitude;pressure_sealevel;temperature;humidity
61506;BME280;47366;51.916;4.574;2024-03-17T00:00:20;102397.22;;;8.17;78.09
61506;BME280;47366;51.916;4.574;2024-03-17T00:02:46;102398.19;;;8.15;78.25
61506;BME280;47366;51.916;4.574;2024-03-17T00:05:12;102393.69;;;8.15;77.73
61506;BME280;47366;51.916;4.574;2024-03-17T00:07:38;102398.13;;;8.18;78.49
61506;BME280;47366;51.916;4.574;2024-03-17T00:10:04;102384.69;;;8.15;78.35
61506;BME280;47366;51.916;4.574;2024-03-17T00:12:29;102381.00;;;8.17;77.89
61506;BME280;47366;51.916;4.574;2024-03-17T00:14:55;102385.50;;;8.18;78.19
61506;BME280;47366;51.916;4.574;2024-03-17T00:17:20;102393.53;;;8.20;78.65
61506;BME280;47366;51.916;4.574;2024-03-17T00:19:49;102376.59;;;8.15;79.21
61506;BME280;47366;51.916;4.574;2024-03-17T00:22:14;102389.06;;;8.20;78.67
61506;BME280;47366;51.916;4.574;2024-03-17T00:24:40;102379.41;;;8.10;78.85
61506;BME280;47366;51.916;4.574;2024-03-17T00:27:07;102374.09;;;8.07;78.90
61506;BME280;47366;51.916;4.574;2024-03-17T00:29:32;102376.69;;;8.12;78.80
61506;BME280;47366;51.916;4.574;2024-03-17T00:31:58;102380.13;;;8.17;78.79
61506;BME280;47366;51.916;4.574;2024-03-17T00:34:24;102385.44;;;8.20;78.82
61506;BME280;47366;51.916;4.574;2024-03-17T00:36:49;102378.28;;;8.19;78.73
61506;BME280;47366;51.916;4.574;2024-03-17T00:39:14;102366.69;;;8.15;78.92
61506;BME280;47366;51.916;4.574;2024-03-17T00:41:40;102376.53;;;8.18;78.82
61506;BME280;47366;51.916;4.574;2024-03-17T00:44:05;102376.56;;;8.16;79.26
61506;BME280;47366;51.916;4.574;2024-03-17T00:46:31;102379.25;;;8.16;79.02
61506;BME280;47366;51.916;4.574;2024-03-17T00:48:58;102375.44;;;8.25;78.64
61506;BME280;47366;51.916;4.574;2024-03-17T00:51:23;102364.63;;;8.25;78.46
61506;BME280;47366;51.916;4.574;2024-03-17T00:53:49;102370.72;;;8.32;78.51
61506;BME280;47366;51.916;4.574;2024-03-17T00:56:14;102349.25;;;8.27;78.40
61506;BME280;47366;51.916;4.574;2024-03-17T00:58:40;102352.75;;;8.32;78.15
61506;BME280;47366;51.916;4.574;2024-03-17T01:01:05;102343.78;;;8.30;78.13
61506;BME280;47366;51.916;4.574;2024-03-17T01:03:31;102351.00;;;8.29;78.11
61506;BME280;47366;51.916;4.574;2024-03-17T01:05:56;102354.41;;;8.36;78.14
61506;BME280;47366;51.916;4.574;2024-03-17T01:08:21;102353.44;;;8.40;77.60
61506;BME280;47366;51.916;4.574;2024-03-17T01:10:48;102352.41;;;8.44;77.47
61506;BME280;47366;51.916;4.574;2024-03-17T01:13:16;102351.47;;;8.45;77.58
61506;BME280;47366;51.916;4.574;2024-03-17T01:15:43;102336.34;;;8.38;77.37
61506;BME280;47366;51.916;4.574;2024-03-17T01:18:08;102338.06;;;8.42;77.60
61506;BME280;47366;51.916;4.574;2024-03-17T01:20:37;102334.53;;;8.39;77.86
61506;BME280;47366;51.916;4.574;2024-03-17T01:23:04;102341.66;;;8.43;77.56
61506;BME280;47366;51.916;4.574;2024-03-17T01:25:30;102345.31;;;8.40;77.16
61506;BME280;47366;51.916;4.574;2024-03-17T01:27:56;102335.47;;;8.38;77.86
61506;BME280;47366;51.916;4.574;2024-03-17T01:30:22;102329.13;;;8.40;78.02
61506;BME280;47366;51.916;4.574;2024-03-17T01:32:48;102322.84;;;8.38;77.69
61506;BME280;47366;51.916;4.574;2024-03-17T01:35:14;102318.41;;;8.36;78.00
61506;BME280;47366;51.916;4.574;2024-03-17T01:37:39;102322.78;;;8.41;77.79
61506;BME280;47366;51.916;4.574;2024-03-17T01:40:06;102310.31;;;8.36;77.99
61506;BME280;47366;51.916;4.574;2024-03-17T01:42:34;102319.41;;;8.33;77.67
61506;BME280;47366;51.916;4.574;2024-03-17T01:45:00;102311.53;;;8.25;78.25
61506;BME280;47366;51.916;4.574;2024-03-17T01:47:25;102306.00;;;8.30;77.84
61506;BME280;47366;51.916;4.574;2024-03-17T01:49:51;102299.75;;;8.28;78.23
61506;BME280;47366;51.916;4.574;2024-03-17T01:52:19;102305.19;;;8.26;78.73
61506;BME280;47366;51.916;4.574;2024-03-17T01:54:45;102311.47;;;8.27;78.36
61506;BME280;47366;51.916;4.574;2024-03-17T01:57:12;102314.09;;;8.30;78.79
61506;BME280;47366;51.916;4.574;2024-03-17T01:59:39;102299.00;;;8.23;78.66
61506;BME280;47366;51.916;4.574;2024-03-17T02:02:05;102315.91;;;8.29;79.02
61506;BME280;47366;51.916;4.574;2024-03-17T02:04:31;102300.63;;;8.28;78.51
61506;BME280;47366;51.916;4.574;2024-03-17T02:06:56;102299.72;;;8.29;78.37
61506;BME280;47366;51.916;4.574;2024-03-17T02:09:21;102289.88;;;8.27;79.21
61506;BME280;47366;51.916;4.574;2024-03-17T02:11:47;102294.34;;;8.28;78.81
61506;BME280;47366;51.916;4.574;2024-03-17T02:14:13;102283.59;;;8.26;79.06
61506;BME280;47366;51.916;4.574;2024-03-17T02:16:40;102289.84;;;8.28;78.76
61506;BME280;47366;51.916;4.574;2024-03-17T02:19:06;102283.69;;;8.23;78.54
61506;BME280;47366;51.916;4.574;2024-03-17T02:21:31;102279.28;;;8.19;78.91
61506;BME280;47366;51.916;4.574;2024-03-17T02:23:57;102278.53;;;8.14;78.94
61506;BME280;47366;51.916;4.574;2024-03-17T02:26:25;102280.16;;;8.20;79.28
61506;BME280;47366;51.916;4.574;2024-03-17T02:28:51;102278.28;;;8.23;79.54
61506;BME280;47366;51.916;4.574;2024-03-17T02:31:17;102271.25;;;8.18;79.43
61506;BME280;47366;51.916;4.574;2024-03-17T02:33:43;102280.94;;;8.25;78.97
61506;BME280;47366;51.916;4.574;2024-03-17T02:36:10;102275.50;;;8.26;79.01
61506;BME280;47366;51.916;4.574;2024-03-17T02:38:37;102272.75;;;8.28;78.88
61506;BME280;47366;51.916;4.574;2024-03-17T02:41:21;102272.75;;;8.28;78.86
61506;BME280;47366;51.916;4.574;2024-03-17T02:43:47;102275.44;;;8.29;78.84
61506;BME280;47366;51.916;4.574;2024-03-17T02:46:13;102266.47;;;8.27;78.66
61506;BME280;47366;51.916;4.574;2024-03-17T02:48:40;102255.00;;;8.19;78.64
61506;BME280;47366;51.916;4.574;2024-03-17T02:51:17;102254.97;;;8.21;78.83
61506;BME280;47366;51.916;4.574;2024-03-17T02:53:47;102258.69;;;8.17;78.66
61506;BME280;47366;51.916;4.574;2024-03-17T02:56:13;102261.22;;;8.23;79.07
61506;BME280;47366;51.916;4.574;2024-03-17T02:58:42;102251.47;;;8.17;79.13
61506;BME280;47366;51.916;4.574;2024-03-17T03:01:08;102242.47;;;8.17;79.19
61506;BME280;47366;51.916;4.574;2024-03-17T03:03:37;102248.63;;;8.22;79.02
61506;BME280;47366;51.916;4.574;2024-03-17T03:06:03;102259.25;;;8.28;79.11
61506;BME280;47366;51.916;4.574;2024-03-17T03:08:37;102250.41;;;8.23;79.13
61506;BME280;47366;51.916;4.574;2024-03-17T03:11:04;102238.03;;;8.16;79.38
61506;BME280;47366;51.916;4.574;2024-03-17T03:13:29;102252.97;;;8.27;79.46
61506;BME280;47366;51.916;4.574;2024-03-17T03:15:55;102233.38;;;8.21;79.59
61506;BME280;47366;51.916;4.574;2024-03-17T03:18:20;102241.38;;;8.24;79.52
61506;BME280;47366;51.916;4.574;2024-03-17T03:20:51;102238.53;;;8.28;79.27
61506;BME280;47366;51.916;4.574;2024-03-17T03:23:18;102235.06;;;8.25;80.02
61506;BME280;47366;51.916;4.574;2024-03-17T03:25:43;102219.06;;;8.17;79.65
61506;BME280;47366;51.916;4.574;2024-03-17T03:28:09;102226.97;;;8.25;79.88
61506;BME280;47366;51.916;4.574;2024-03-17T03:30:37;102208.94;;;8.25;79.96
61506;BME280;47366;51.916;4.574;2024-03-17T03:33:03;102191.19;;;8.17;79.63
61506;BME280;47366;51.916;4.574;2024-03-17T03:35:30;102211.91;;;8.16;80.31
61506;BME280;47366;51.916;4.574;2024-03-17T03:37:55;102212.75;;;8.18;80.19
61506;BME280;47366;51.916;4.574;2024-03-17T03:40:21;102200.47;;;8.08;80.58
61506;BME280;47366;51.916;4.574;2024-03-17T03:42:47;102211.91;;;8.16;80.31
61506;BME280;47366;51.916;4.574;2024-03-17T03:45:12;102196.19;;;8.01;80.70
61506;BME280;47366;51.916;4.574;2024-03-17T03:47:39;102200.50;;;8.06;80.70
61506;BME280;47366;51.916;4.574;2024-03-17T03:50:09;102200.28;;;8.14;80.42
61506;BME280;47366;51.916;4.574;2024-03-17T03:52:36;102183.25;;;8.12;80.57
61506;BME280;47366;51.916;4.574;2024-03-17T03:55:03;102185.91;;;8.14;80.43
61506;BME280;47366;51.916;4.574;2024-03-17T03:57:30;102173.38;;;8.11;80.57
61506;BME280;47366;51.916;4.574;2024-03-17T03:59:55;102174.28;;;8.12;80.39
61506;BME280;47366;51.916;4.574;2024-03-17T04:02:21;102170.63;;;8.13;80.27
61506;BME280;47366;51.916;4.574;2024-03-17T04:04:47;102167.13;;;8.11;80.73
61506;BME280;47366;51.916;4.574;2024-03-17T04:07:13;102164.41;;;8.11;80.62
61506;BME280;47366;51.916;4.574;2024-03-17T04:09:38;102166.03;;;8.16;80.63
61506;BME280;47366;51.916;4.574;2024-03-17T04:12:04;102166.00;;;8.18;80.43
61506;BME280;47366;51.916;4.574;2024-03-17T04:14:29;102172.41;;;8.14;80.98
61506;BME280;47366;51.916;4.574;2024-03-17T04:16:56;102167.25;;;8.06;81.16
61506;BME280;47366;51.916;4.574;2024-03-17T04:19:21;102184.31;;;8.06;81.35
61506;BME280;47366;51.916;4.574;2024-03-17T04:21:47;102177.91;;;8.11;80.99
61506;BME280;47366;51.916;4.574;2024-03-17T04:24:12;102182.41;;;8.10;80.98
61506;BME280;47366;51.916;4.574;2024-03-17T04:26:37;102186.91;;;8.09;80.66
61506;BME280;47366;51.916;4.574;2024-03-17T04:29:03;102165.53;;;8.03;80.71
61506;BME280;47366;51.916;4.574;2024-03-17T04:31:31;102173.38;;;8.11;80.87
61506;BME280;47366;51.916;4.574;2024-03-17T04:33:56;102164.34;;;8.12;80.91
61506;BME280;47366;51.916;4.574;2024-03-17T04:36:21;102165.19;;;8.14;80.48
61506;BME280;47366;51.916;4.574;2024-03-17T04:38:47;102172.22;;;8.20;80.55
61506;BME280;47366;51.916;4.574;2024-03-17T04:41:16;102166.00;;;8.18;80.57
61506;BME280;47366;51.916;4.574;2024-03-17T04:43:41;102162.47;;;8.16;80.45
61506;BME280;47366;51.916;4.574;2024-03-17T04:46:07;102159.81;;;8.13;80.76
61506;BME280;47366;51.916;4.574;2024-03-17T04:48:34;102164.28;;;8.15;80.60
61506;BME280;47366;51.916;4.574;2024-03-17T04:51:00;102160.75;;;8.13;81.12
61506;BME280;47366;51.916;4.574;2024-03-17T04:53:26;102169.88;;;8.07;80.86
61506;BME280;47366;51.916;4.574;2024-03-17T04:56:03;102161.03;;;8.02;80.74
61506;BME280;47366;51.916;4.574;2024-03-17T04:58:33;102157.31;;;8.08;81.32
61506;BME280;47366;51.916;4.574;2024-03-17T05:01:06;102160.75;;;8.13;80.96
61506;BME280;47366;51.916;4.574;2024-03-17T05:03:33;102147.31;;;8.10;80.69
61506;BME280;47366;51.916;4.574;2024-03-17T05:05:59;102150.84;;;8.12;80.40
61506;BME280;47366;51.916;4.574;2024-03-17T05:08:29;102149.03;;;8.13;81.37
61506;BME280;47366;51.916;4.574;2024-03-17T05:11:01;102147.38;;;8.08;80.97
61506;BME280;47366;51.916;4.574;2024-03-17T05:13:33;102154.59;;;8.08;81.16
61506;BME280;47366;51.916;4.574;2024-03-17T05:16:02;102149.13;;;8.09;81.29
61506;BME280;47366;51.916;4.574;2024-03-17T05:18:30;102144.00;;;8.00;80.68
61506;BME280;47366;51.916;4.574;2024-03-17T05:20:59;102151.25;;;7.98;81.52
61506;BME280;47366;51.916;4.574;2024-03-17T05:23:31;102153.94;;;8.00;81.65
61506;BME280;47366;51.916;4.574;2024-03-17T05:25:58;102155.63;;;8.04;81.66
61506;BME280;47366;51.916;4.574;2024-03-17T05:28:24;102157.63;;;7.96;81.81
61506;BME280;47366;51.916;4.574;2024-03-17T05:30:50;102144.13;;;7.97;81.49
61506;BME280;47366;51.916;4.574;2024-03-17T05:33:20;102161.16;;;7.99;82.07
61506;BME280;47366;51.916;4.574;2024-03-17T05:38:15;102160.28;;;7.99;83.07
61506;BME280;47366;51.916;4.574;2024-03-17T05:40:41;102155.75;;;7.99;82.94
61506;BME280;47366;51.916;4.574;2024-03-17T05:43:06;102139.44;;;8.04;82.30
61506;BME280;47366;51.916;4.574;2024-03-17T05:45:32;102146.53;;;8.06;81.89
61506;BME280;47366;51.916;4.574;2024-03-17T05:47:57;102144.59;;;8.12;81.66
61506;BME280;47366;51.916;4.574;2024-03-17T05:50:23;102136.53;;;8.10;81.96
61506;BME280;47366;51.916;4.574;2024-03-17T05:52:48;102132.84;;;8.13;82.11
61506;BME280;47366;51.916;4.574;2024-03-17T05:55:13;102142.72;;;8.14;81.98
61506;BME280;47366;51.916;4.574;2024-03-17T05:57:39;102145.47;;;8.12;82.49
61506;BME280;47366;51.916;4.574;2024-03-17T06:00:05;102133.88;;;8.08;82.49
61506;BME280;47366;51.916;4.574;2024-03-17T06:02:30;102137.31;;;8.14;81.89
61506;BME280;47366;51.916;4.574;2024-03-17T06:04:56;102133.78;;;8.12;82.00
61506;BME280;47366;51.916;4.574;2024-03-17T06:07:22;102128.38;;;8.12;82.25
61506;BME280;47366;51.916;4.574;2024-03-17T06:09:48;102137.22;;;8.17;81.84
61506;BME280;47366;51.916;4.574;2024-03-17T06:12:14;102124.72;;;8.14;81.74
61506;BME280;47366;51.916;4.574;2024-03-17T06:14:40;102139.09;;;8.15;82.02
61506;BME280;47366;51.916;4.574;2024-03-17T06:17:05;102130.94;;;8.16;82.14
61506;BME280;47366;51.916;4.574;2024-03-17T06:19:33;102143.44;;;8.20;82.01
61506;BME280;47366;51.916;4.574;2024-03-17T06:21:58;102147.00;;;8.21;82.91
61506;BME280;47366;51.916;4.574;2024-03-17T06:24:23;102135.19;;;8.25;82.94
61506;BME280;47366;51.916;4.574;2024-03-17T06:26:50;102121.69;;;8.25;82.33
61506;BME280;47366;51.916;4.574;2024-03-17T06:29:16;102130.47;;;8.32;82.52
61506;BME280;47366;51.916;4.574;2024-03-17T06:31:41;102134.09;;;8.30;82.56
61506;BME280;47366;51.916;4.574;2024-03-17T06:34:06;102132.09;;;8.37;81.99
61506;BME280;47366;51.916;4.574;2024-03-17T06:36:32;102145.34;;;8.46;81.96
61506;BME280;47366;51.916;4.574;2024-03-17T06:38:57;102135.59;;;8.41;81.55
61506;BME280;47366;51.916;4.574;2024-03-17T06:41:22;102142.50;;;8.51;81.73
61506;BME280;47366;51.916;4.574;2024-03-17T06:43:48;102147.94;;;8.49;82.07
61506;BME280;47366;51.916;4.574;2024-03-17T06:46:14;102133.41;;;8.54;81.82
61506;BME280;47366;51.916;4.574;2024-03-17T06:48:39;102127.22;;;8.50;82.09
61506;BME280;47366;51.916;4.574;2024-03-17T06:51:05;102131.56;;;8.56;81.76
61506;BME280;47366;51.916;4.574;2024-03-17T06:53:30;102125.22;;;8.57;81.93
61506;BME280;47366;51.916;4.574;2024-03-17T06:55:57;102118.09;;;8.54;82.08
61506;BME280;47366;51.916;4.574;2024-03-17T06:58:24;102134.03;;;8.62;82.08
61506;BME280;47366;51.916;4.574;2024-03-17T07:00:58;102132.06;;;8.67;81.92
61506;BME280;47366;51.916;4.574;2024-03-17T07:03:28;102147.22;;;8.73;81.90
61506;BME280;47366;51.916;4.574;2024-03-17T07:05:56;102144.25;;;8.80;81.59
61506;BME280;47366;51.916;4.574;2024-03-17T07:08:22;102136.91;;;8.84;81.60
61506;BME280;47366;51.916;4.574;2024-03-17T07:11:01;102136.66;;;8.91;81.37
61506;BME280;47366;51.916;4.574;2024-03-17T07:13:32;102117.91;;;8.87;81.96
61506;BME280;47366;51.916;4.574;2024-03-17T07:16:02;102128.50;;;8.93;81.50
61506;BME280;47366;51.916;4.574;2024-03-17T07:18:28;102139.72;;;9.07;81.25
61506;BME280;47366;51.916;4.574;2024-03-17T07:20:58;102144.97;;;9.12;81.11
61506;BME280;47366;51.916;4.574;2024-03-17T07:23:24;102151.25;;;9.12;81.31
61506;BME280;47366;51.916;4.574;2024-03-17T07:25:56;102153.78;;;9.17;80.97
61506;BME280;47366;51.916;4.574;2024-03-17T07:28:22;102153.09;;;9.10;81.24
61506;BME280;47366;51.916;4.574;2024-03-17T07:30:53;102157.59;;;9.11;80.99
61506;BME280;47366;51.916;4.574;2024-03-17T07:33:19;102160.91;;;9.20;81.11
61506;BME280;47366;51.916;4.574;2024-03-17T07:38:17;102163.84;;;9.13;81.48
61506;BME280;47366;51.916;4.574;2024-03-17T07:40:43;102166.25;;;9.21;81.26
61506;BME280;47366;51.916;4.574;2024-03-17T07:43:09;102169.00;;;9.20;81.20
61506;BME280;47366;51.916;4.574;2024-03-17T07:45:34;102157.41;;;9.18;81.62
61506;BME280;47366;51.916;4.574;2024-03-17T07:47:59;102159.75;;;9.27;80.99
61506;BME280;47366;51.916;4.574;2024-03-17T07:50:25;102171.34;;;9.30;80.95
61506;BME280;47366;51.916;4.574;2024-03-17T07:52:50;102157.88;;;9.29;81.58
61506;BME280;47366;51.916;4.574;2024-03-17T07:55:15;102158.75;;;9.29;81.18
61506;BME280;47366;51.916;4.574;2024-03-17T07:57:41;102162.25;;;9.33;81.50
61506;BME280;47366;51.916;4.574;2024-03-17T08:00:07;102154.91;;;9.36;81.17
61506;BME280;47366;51.916;4.574;2024-03-17T08:02:49;102161.94;;;9.42;81.73
61506;BME280;47366;51.916;4.574;2024-03-17T08:05:15;102146.00;;;9.34;81.41
61506;BME280;47366;51.916;4.574;2024-03-17T08:07:40;102142.66;;;9.26;81.51
61506;BME280;47366;51.916;4.574;2024-03-17T08:10:07;102160.22;;;9.40;81.92
61506;BME280;47366;51.916;4.574;2024-03-17T08:12:33;102147.63;;;9.39;81.50
61506;BME280;47366;51.916;4.574;2024-03-17T08:14:58;102142.84;;;9.47;81.32
61506;BME280;47366;51.916;4.574;2024-03-17T08:17:25;102138.47;;;9.43;82.06
61506;BME280;47366;51.916;4.574;2024-03-17T08:19:50;102151.88;;;9.46;81.73
61506;BME280;47366;51.916;4.574;2024-03-17T08:22:15;102150.84;;;9.50;81.88
61506;BME280;47366;51.916;4.574;2024-03-17T08:24:41;102152.38;;;9.57;81.83
61506;BME280;47366;51.916;4.574;2024-03-17T08:27:07;102142.56;;;9.54;81.45
61506;BME280;47366;51.916;4.574;2024-03-17T08:29:32;102146.97;;;9.57;81.86
61506;BME280;47366;51.916;4.574;2024-03-17T08:31:58;102144.38;;;9.54;81.94
61506;BME280;47366;51.916;4.574;2024-03-17T08:34:24;102159.53;;;9.58;81.34
61506;BME280;47366;51.916;4.574;2024-03-17T08:36:49;102152.41;;;9.55;82.33
61506;BME280;47366;51.916;4.574;2024-03-17T08:39:15;102141.56;;;9.57;82.16
61506;BME280;47366;51.916;4.574;2024-03-17T08:41:40;102137.84;;;9.60;81.98
61506;BME280;47366;51.916;4.574;2024-03-17T08:44:06;102129.63;;;9.63;81.73
61506;BME280;47366;51.916;4.574;2024-03-17T08:46:31;102119.44;;;9.69;81.82
61506;BME280;47366;51.916;4.574;2024-03-17T08:48:57;102132.66;;;9.78;81.79
61506;BME280;47366;51.916;4.574;2024-03-17T08:51:23;102133.69;;;9.74;81.80
61506;BME280;47366;51.916;4.574;2024-03-17T08:53:49;102126.41;;;9.76;81.75
61506;BME280;47366;51.916;4.574;2024-03-17T08:56:14;102121.88;;;9.77;81.52
61506;BME280;47366;51.916;4.574;2024-03-17T08:58:39;102122.47;;;9.85;81.42
61506;BME280;47366;51.916;4.574;2024-03-17T09:01:07;102121.19;;;9.95;81.39
61506;BME280;47366;51.916;4.574;2024-03-17T09:03:36;102120.66;;;10.09;81.12
61506;BME280;47366;51.916;4.574;2024-03-17T09:06:01;102116.06;;;10.11;80.61
61506;BME280;47366;51.916;4.574;2024-03-17T09:08:27;102117.28;;;10.26;80.38
61506;BME280;47366;51.916;4.574;2024-03-17T09:10:54;102118.06;;;10.30;80.29
61506;BME280;47366;51.916;4.574;2024-03-17T09:13:23;102125.56;;;10.45;80.30
61506;BME280;47366;51.916;4.574;2024-03-17T09:15:59;102112.84;;;10.47;80.21
61506;BME280;47366;51.916;4.574;2024-03-17T09:18:32;102111.84;;;10.50;80.28
61506;BME280;47366;51.916;4.574;2024-03-17T09:23:26;102110.50;;;10.60;80.11
61506;BME280;47366;51.916;4.574;2024-03-17T09:25:57;102101.13;;;10.69;79.99
61506;BME280;47366;51.916;4.574;2024-03-17T09:28:23;102099.88;;;10.77;80.43
61506;BME280;47366;51.916;4.574;2024-03-17T09:30:48;102098.03;;;10.78;79.95
61506;BME280;47366;51.916;4.574;2024-03-17T09:33:14;102110.38;;;10.85;79.59
61506;BME280;47366;51.916;4.574;2024-03-17T09:35:40;102091.50;;;10.82;79.97
61506;BME280;47366;51.916;4.574;2024-03-17T09:38:05;102099.16;;;10.94;79.55
61506;BME280;47366;51.916;4.574;2024-03-17T09:40:30;102089.66;;;11.04;79.66
61506;BME280;47366;51.916;4.574;2024-03-17T09:42:56;102084.91;;;11.10;79.69
61506;BME280;47366;51.916;4.574;2024-03-17T09:45:24;102087.22;;;11.19;79.04
61506;BME280;47366;51.916;4.574;2024-03-17T09:47:50;102084.09;;;11.28;78.88
61506;BME280;47366;51.916;4.574;2024-03-17T09:50:16;102092.66;;;11.39;78.56
61506;BME280;47366;51.916;4.574;2024-03-17T09:52:44;102093.63;;;11.37;78.83
61506;BME280;47366;51.916;4.574;2024-03-17T09:55:15;102094.53;;;11.37;79.11
61506;BME280;47366;51.916;4.574;2024-03-17T09:57:42;102099.97;;;11.37;79.20
61506;BME280;47366;51.916;4.574;2024-03-17T10:00:13;102098.66;;;11.46;79.23
61506;BME280;47366;51.916;4.574;2024-03-17T10:02:45;102089.38;;;11.52;79.23
61506;BME280;47366;51.916;4.574;2024-03-17T10:05:24;102085.63;;;11.54;79.49
61506;BME280;47366;51.916;4.574;2024-03-17T10:07:51;102081.47;;;11.66;79.17
61506;BME280;47366;51.916;4.574;2024-03-17T10:10:18;102081.19;;;11.72;79.27
61506;BME280;47366;51.916;4.574;2024-03-17T10:12:48;102094.31;;;11.81;79.18
61506;BME280;47366;51.916;4.574;2024-03-17T10:15:14;102086.44;;;11.96;78.74
61506;BME280;47366;51.916;4.574;2024-03-17T10:17:39;102089.69;;;12.04;77.89
61506;BME280;47366;51.916;4.574;2024-03-17T10:20:21;102090.47;;;12.06;78.18
61506;BME280;47366;51.916;4.574;2024-03-17T10:23:05;102093.06;;;12.09;78.96
61506;BME280;47366;51.916;4.574;2024-03-17T10:25:40;102075.09;;;12.06;77.63
61506;BME280;47366;51.916;4.574;2024-03-17T10:28:13;102075.78;;;12.29;77.87
61506;BME280;47366;51.916;4.574;2024-03-17T10:30:39;102085.41;;;12.36;77.51
61506;BME280;47366;51.916;4.574;2024-03-17T10:33:05;102088.13;;;12.36;77.79
61506;BME280;47366;51.916;4.574;2024-03-17T10:35:37;102087.72;;;12.44;78.08
61506;BME280;47366;51.916;4.574;2024-03-17T10:38:09;102075.97;;;12.43;77.89
61506;BME280;47366;51.916;4.574;2024-03-17T10:40:34;102088.72;;;12.60;78.16
61506;BME280;47366;51.916;4.574;2024-03-17T10:43:03;102072.53;;;12.59;77.43
61506;BME280;47366;51.916;4.574;2024-03-17T10:45:29;102075.94;;;12.62;77.93
61506;BME280;47366;51.916;4.574;2024-03-17T10:48:01;102070.84;;;12.56;78.09
61506;BME280;47366;51.916;4.574;2024-03-17T10:50:30;102066.69;;;12.66;78.25
61506;BME280;47366;51.916;4.574;2024-03-17T10:53:02;102073.75;;;12.70;78.31
61506;BME280;47366;51.916;4.574;2024-03-17T10:55:31;102071.78;;;12.72;78.08
61506;BME280;47366;51.916;4.574;2024-03-17T10:57:57;102066.47;;;12.71;78.71
61506;BME280;47366;51.916;4.574;2024-03-17T11:00:25;102070.28;;;12.67;78.67
61506;BME280;47366;51.916;4.574;2024-03-17T11:02:55;102064.25;;;12.60;79.04
61506;BME280;47366;51.916;4.574;2024-03-17T11:05:28;102071.47;;;12.61;78.94
61506;BME280;47366;51.916;4.574;2024-03-17T11:08:00;102060.84;;;12.57;79.46
61506;BME280;47366;51.916;4.574;2024-03-17T11:10:28;102060.91;;;12.55;79.54
61506;BME280;47366;51.916;4.574;2024-03-17T11:12:55;102051.53;;;12.61;79.53
61506;BME280;47366;51.916;4.574;2024-03-17T11:20:37;102046.09;;;12.43;81.97
61506;BME280;47366;51.916;4.574;2024-03-17T11:23:04;102034.34;;;12.43;81.79
61506;BME280;47366;51.916;4.574;2024-03-17T11:25:37;102040.06;;;12.37;82.88
61506;BME280;47366;51.916;4.574;2024-03-17T11:28:03;102036.50;;;12.36;82.84
61506;BME280;47366;51.916;4.574;2024-03-17T11:46:51;102028.44;;;12.52;84.97
61506;BME280;47366;51.916;4.574;2024-03-17T11:49:23;102027.75;;;12.66;84.41
61506;BME280;47366;51.916;4.574;2024-03-17T11:51:54;102024.69;;;12.72;83.79
61506;BME280;47366;51.916;4.574;2024-03-17T11:54:23;102020.28;;;12.87;83.91
61506;BME280;47366;51.916;4.574;2024-03-17T11:56:51;102002.16;;;12.87;83.52
61506;BME280;47366;51.916;4.574;2024-03-17T11:59:18;101992.31;;;13.02;82.95
61506;BME280;47366;51.916;4.574;2024-03-17T12:01:45;102001.16;;;13.23;82.38
61506;BME280;47366;51.916;4.574;2024-03-17T12:04:13;101994.53;;;13.29;82.84
61506;BME280;47366;51.916;4.574;2024-03-17T12:06:38;101993.53;;;13.47;82.80
61506;BME280;47366;51.916;4.574;2024-03-17T12:09:26;101990.03;;;13.61;81.83
61506;BME280;47366;51.916;4.574;2024-03-17T12:12:10;101983.78;;;13.75;81.62
61506;BME280;47366;51.916;4.574;2024-03-17T12:14:37;101979.00;;;13.80;81.31
61506;BME280;47366;51.916;4.574;2024-03-17T12:17:08;101991.69;;;13.79;81.31
61506;BME280;47366;51.916;4.574;2024-03-17T12:19:34;101977.81;;;13.84;81.34
61506;BME280;47366;51.916;4.574;2024-03-17T12:22:01;101979.84;;;13.96;80.78
61506;BME280;47366;51.916;4.574;2024-03-17T12:24:28;101967.00;;;13.98;81.06
61506;BME280;47366;51.916;4.574;2024-03-17T12:26:55;101973.78;;;14.07;80.81
61506;BME280;47366;51.916;4.574;2024-03-17T12:31:46;101966.31;;;13.95;81.67
61506;BME280;47366;51.916;4.574;2024-03-17T12:34:12;101963.41;;;14.14;81.49
61506;BME280;47366;51.916;4.574;2024-03-17T12:36:39;101961.00;;;14.23;81.49
61506;BME280;47366;51.916;4.574;2024-03-17T12:39:17;101955.91;;;14.33;81.05
61506;BME280;47366;51.916;4.574;2024-03-17T12:41:44;101953.44;;;14.29;81.04
61506;BME280;47366;51.916;4.574;2024-03-17T12:44:21;101957.63;;;14.34;81.16
61506;BME280;47366;51.916;4.574;2024-03-17T12:46:46;101947.91;;;14.30;81.10
61506;BME280;47366;51.916;4.574;2024-03-17T12:49:12;101948.66;;;14.32;81.61
61506;BME280;47366;51.916;4.574;2024-03-17T12:51:37;101944.59;;;14.39;81.77
61506;BME280;47366;51.916;4.574;2024-03-17T12:54:14;101935.75;;;14.36;81.27
61506;BME280;47366;51.916;4.574;2024-03-17T12:56:40;101937.06;;;14.44;81.16
61506;BME280;47366;51.916;4.574;2024-03-17T12:59:24;101953.13;;;14.49;81.24
61506;BME280;47366;51.916;4.574;2024-03-17T13:02:11;101940.00;;;14.56;80.91
61506;BME280;47366;51.916;4.574;2024-03-17T13:04:37;101947.97;;;14.44;80.68
61506;BME280;47366;51.916;4.574;2024-03-17T13:07:13;101937.59;;;14.35;81.13
61506;BME280;47366;51.916;4.574;2024-03-17T13:09:38;101939.53;;;14.33;81.05
61506;BME280;47366;51.916;4.574;2024-03-17T13:12:24;101921.84;;;14.40;81.12
61506;BME280;47366;51.916;4.574;2024-03-17T13:14:49;101923.78;;;14.38;81.20
61506;BME280;47366;51.916;4.574;2024-03-17T13:17:15;101922.78;;;14.39;80.82
61506;BME280;47366;51.916;4.574;2024-03-17T13:19:47;101923.59;;;14.41;81.11
61506;BME280;47366;51.916;4.574;2024-03-17T13:22:13;101915.81;;;14.35;81.02
61506;BME280;47366;51.916;4.574;2024-03-17T13:24:38;101921.28;;;14.50;80.89
61506;BME280;47366;51.916;4.574;2024-03-17T13:27:05;101903.44;;;14.44;80.39
61506;BME280;47366;51.916;4.574;2024-03-17T13:29:32;101912.13;;;14.51;80.53